Time;durP1;ratioP1;P1;durP2;ratioP2;P2;SDS_P1;SDS_P2;PMS_P1;PMS_P2;Temp;Humidity;BMP_temperature;BMP_pressure;BME280_temperature;BME280_humidity;BME280_pressure;Samples;Min_cycle;Max_cycle;Signal;HPM_P1;HPM_P2
2022/09/14 05:25:31;;;;;;;12.07;6.53;;;;;;;11.93;100.00;99445.00;1758777;81;21100;-50
2022/09/14 05:28:01;;;;;;;7.05;5.85;;;;;;;11.99;100.00;99448.81;1749578;80;21624;-39
2022/09/14 05:30:32;;;;;;;;;;;;;;;12.05;100.00;99453.08;1677311;83;21114;-40
2022/09/14 05:32:59;;;;;;;8.23;6.55;;;;;;;12.07;100.00;99455.24;1676493;83;20107;-40
2022/09/14 05:35:26;;;;;;;9.75;7.25;;;;;;;12.06;100.00;99472.73;1676056;83;21049;-50
2022/09/14 05:37:53;;;;;;;8.45;6.53;;;;;;;12.06;100.00;99458.73;1674436;83;21282;-41
2022/09/14 05:40:20;;;;;;;12.20;8.43;;;;;;;12.07;100.00;99461.80;1672581;83;21071;-40
2022/09/14 05:42:48;;;;;;;8.50;7.05;;;;;;;12.09;100.00;99460.86;1675227;84;21138;-49
2022/09/14 05:45:15;;;;;;;9.35;7.42;;;;;;;12.12;100.00;99456.02;1685236;83;21416;-48
2022/09/14 05:47:41;;;;;;;9.50;7.20;;;;;;;12.15;100.00;99453.32;1674802;83;21078;-48
2022/09/14 05:50:10;;;;;;;9.93;7.62;;;;;;;12.17;100.00;99453.69;1677580;83;21133;-39
2022/09/14 05:52:37;;;;;;;10.48;7.55;;;;;;;12.21;100.00;99461.06;1600070;86;21410;-48
2022/09/14 05:55:05;;;;;;;8.85;6.58;;;;;;;12.22;100.00;99459.72;1675169;83;21450;-48
2022/09/14 05:57:32;;;;;;;11.18;6.60;;;;;;;12.27;100.00;99461.39;1674906;83;21026;-48
2022/09/14 06:00:01;;;;;;;9.25;6.72;;;;;;;12.28;100.00;99462.66;1675740;83;22057;-49
2022/09/14 06:02:28;;;;;;;8.03;7.08;;;;;;;12.29;100.00;99460.90;1631825;85;21600;-49
2022/09/14 06:04:55;;;;;;;11.70;6.87;;;;;;;12.32;100.00;99458.23;1678812;83;20979;-49
2022/09/14 06:07:23;;;;;;;9.05;7.53;;;;;;;12.35;100.00;99448.55;1673919;83;21905;-49
2022/09/14 06:09:49;;;;;;;7.25;6.10;;;;;;;12.39;100.00;99448.88;1674016;83;20998;-38
2022/09/14 06:12:16;;;;;;;7.70;6.55;;;;;;;12.43;100.00;99453.63;1677193;82;21021;-40
2022/09/14 06:14:44;;;;;;;8.55;6.60;;;;;;;12.47;100.00;99466.66;1678118;83;21018;-39
2022/09/14 06:17:12;;;;;;;7.22;6.30;;;;;;;12.51;100.00;99466.13;1676766;83;21038;-39
2022/09/14 06:19:39;;;;;;;7.78;6.40;;;;;;;12.53;100.00;99472.23;1653153;83;21674;-39
2022/09/14 06:22:05;;;;;;;11.25;7.05;;;;;;;12.54;100.00;99480.51;1748035;79;21022;-49
2022/09/14 06:24:32;;;;;;;7.35;5.85;;;;;;;12.56;100.00;99477.84;1753131;80;21298;-49
2022/09/14 06:26:59;;;;;;;6.65;6.00;;;;;;;12.58;100.00;99482.18;1750382;80;21977;-49
2022/09/14 06:29:26;;;;;;;6.65;6.00;;;;;;;12.61;100.00;99476.85;1752798;80;22205;-39
2022/09/14 06:31:53;;;;;;;6.35;5.20;;;;;;;12.66;100.00;99486.80;1753803;80;21357;-49
2022/09/14 06:34:20;;;;;;;9.70;6.50;;;;;;;12.66;100.00;99485.50;1747447;80;21626;-49
2022/09/14 06:37:05;;;;;;;7.67;5.47;;;;;;;12.66;100.00;99473.69;1747666;80;21384;-48
2022/09/14 06:39:32;;;;;;;5.90;5.33;;;;;;;12.70;100.00;99479.75;1744214;80;21056;-39
2022/09/14 06:41:58;;;;;;;6.67;5.53;;;;;;;12.73;100.00;99480.52;1746373;80;21430;-39
2022/09/14 06:44:27;;;;;;;5.92;5.42;;;;;;;12.76;100.00;99480.47;1683123;83;21522;-49
2022/09/14 06:46:54;;;;;;;5.87;5.28;;;;;;;12.84;100.00;99481.61;1708583;82;21005;-49
2022/09/14 06:49:22;;;;;;;7.28;4.75;;;;;;;12.89;100.00;99487.62;1706668;82;20998;-40
2022/09/14 06:51:49;;;;;;;5.20;4.47;;;;;;;12.94;100.00;99479.65;1711350;82;21007;-39
2022/09/14 06:54:16;;;;;;;4.95;4.45;;;;;;;13.00;99.96;99488.70;1718114;82;21480;-40
2022/09/14 06:56:44;;;;;;;5.87;4.60;;;;;;;13.04;99.17;99486.40;1717547;81;21544;-40
2022/09/14 06:59:14;;;;;;;5.22;4.37;;;;;;;13.10;99.06;99481.45;1715485;81;21033;-39
2022/09/14 07:01:41;;;;;;;6.60;4.80;;;;;;;13.23;98.60;99485.58;1718478;82;21066;-49
2022/09/14 07:04:08;;;;;;;6.25;4.47;;;;;;;13.39;96.62;99484.28;1716868;82;21625;-50
2022/09/14 07:06:40;;;;;;;6.05;4.55;;;;;;;13.52;96.10;99492.77;1717836;82;21012;-49
2022/09/14 07:09:07;;;;;;;6.58;4.85;;;;;;;13.62;94.63;99491.60;1686316;83;21057;-49
2022/09/14 07:11:35;;;;;;;4.90;4.35;;;;;;;13.65;93.81;99476.23;1717421;82;21032;-49
2022/09/14 07:14:02;;;;;;;4.47;4.08;;;;;;;13.69;94.30;99476.12;1717074;82;21699;-49
2022/09/14 07:16:30;;;;;;;4.03;3.67;;;;;;;13.75;93.62;99476.41;1714108;82;21086;-50
2022/09/14 07:19:00;;;;;;;3.80;3.22;;;;;;;13.82;93.56;99479.28;1710553;80;21038;-40
2022/09/14 07:21:27;;;;;;;3.47;3.17;;;;;;;13.88;88.71;99483.52;1709904;82;21605;-49
2022/09/14 07:23:57;;;;;;;3.37;3.08;;;;;;;13.92;87.47;99484.72;1709197;82;21074;-49
2022/09/14 07:26:34;;;;;;;4.25;3.35;;;;;;;14.00;86.57;99470.91;1714563;82;21363;-49
2022/09/14 07:29:05;;;;;;;3.37;3.12;;;;;;;14.10;86.11;99475.02;1711135;82;21030;-49
2022/09/14 07:31:43;;;;;;;2.90;2.70;;;;;;;14.25;86.19;99471.54;1711517;82;21021;-49
2022/09/14 07:34:10;;;;;;;4.62;2.77;;;;;;;14.43;84.18;99475.42;1713225;82;21035;-49
2022/09/14 07:36:49;;;;;;;3.75;2.60;;;;;;;14.63;83.47;99466.08;1711058;82;21059;-39
2022/09/14 07:39:33;;;;;;;2.52;2.33;;;;;;;14.78;79.15;99476.59;1702800;82;21898;-39
2022/09/14 07:42:00;;;;;;;2.52;2.20;;;;;;;14.79;77.41;99466.50;1707339;82;21006;-39
2022/09/14 07:44:27;;;;;;;2.35;2.15;;;;;;;14.83;76.41;99468.10;1708521;82;20988;-40
2022/09/14 07:46:59;;;;;;;4.10;2.30;;;;;;;14.89;77.73;99457.84;1709176;81;21431;-39
2022/09/14 07:49:27;;;;;;;2.25;2.05;;;;;;;14.98;76.53;99457.56;1712984;82;20982;-39
2022/09/14 07:52:07;;;;;;;2.60;2.20;;;;;;;15.09;75.96;99450.65;1725154;81;21014;-49
2022/09/14 07:54:34;;;;;;;2.30;2.12;;;;;;;15.24;75.17;99447.50;1744794;80;21001;-49
2022/09/14 07:57:01;;;;;;;3.30;2.15;;;;;;;15.42;73.59;99440.77;1748303;80;21000;-49
2022/09/14 07:59:27;;;;;;;2.00;1.80;;;;;;;15.59;74.16;99445.47;1749053;80;20994;-49
2022/09/14 08:01:54;;;;;;;1.80;1.65;;;;;;;15.80;70.28;99439.97;1747792;80;21056;-40
2022/09/14 08:04:20;;;;;;;1.92;1.75;;;;;;;15.93;65.69;99447.84;1745801;80;20997;-48
2022/09/14 08:06:47;;;;;;;2.00;1.80;;;;;;;15.92;65.10;99442.17;1738878;80;20993;-48
2022/09/14 08:09:13;;;;;;;1.62;1.52;;;;;;;15.86;66.14;99441.07;1741662;80;20990;-39
2022/09/14 08:11:39;;;;;;;1.70;1.60;;;;;;;15.84;67.89;99441.13;1752812;80;21497;-39
2022/09/14 08:14:09;;;;;;;2.02;1.82;;;;;;;15.94;66.96;99436.37;1742374;80;20981;-39
2022/09/14 08:16:37;;;;;;;2.20;2.00;;;;;;;16.07;66.41;99443.42;1745899;80;20990;-38
2022/09/14 08:19:06;;;;;;;1.72;1.62;;;;;;;16.12;66.39;99444.09;1742076;79;21383;-39
2022/09/14 08:21:32;;;;;;;2.30;2.10;;;;;;;16.12;66.84;99446.30;1744692;80;21791;-39
2022/09/14 08:24:01;;;;;;;2.20;2.00;;;;;;;16.14;67.65;99451.52;1730139;80;21909;-48
2022/09/14 08:26:27;;;;;;;2.50;2.30;;;;;;;16.15;66.90;99444.00;1741873;81;21034;-49
2022/09/14 08:28:54;;;;;;;2.12;1.98;;;;;;;16.10;67.68;99444.16;1766298;80;21051;-49
2022/09/14 08:31:27;;;;;;;2.72;2.35;;;;;;;16.09;68.68;99448.17;1760949;80;21553;-49
2022/09/14 08:33:56;;;;;;;3.25;2.80;;;;;;;16.09;68.33;99447.71;1765217;79;21445;-48
2022/09/14 08:36:23;;;;;;;4.70;2.55;;;;;;;16.08;67.43;99451.27;1768510;80;21584;-48
2022/09/14 08:38:50;;;;;;;3.15;2.87;;;;;;;16.06;67.40;99462.78;1781614;79;21352;-49
2022/09/14 08:41:53;;;;;;;4.08;3.08;;;;;;;16.07;67.63;99467.17;1753917;80;20995;-48
2022/09/14 08:44:41;;;;;;;4.80;3.05;;;;;;;16.04;67.18;99459.34;1747924;80;21016;-48
2022/09/14 08:47:18;;;;;;;4.85;3.80;;;;;;;15.98;67.78;99452.51;1749349;80;21012;-39
2022/09/14 08:49:50;;;;;;;5.10;3.67;;;;;;;15.99;68.00;99449.41;1741640;80;21000;-50
2022/09/14 08:52:46;;;;;;;3.60;3.25;;;;;;;16.00;68.14;99448.48;1750025;80;21031;-49
2022/09/14 08:55:33;;;;;;;6.80;4.28;;;;;;;16.03;68.53;99450.57;1747498;80;21026;-38
2022/09/14 08:58:32;;;;;;;9.20;3.95;;;;;;;16.12;69.21;99450.25;1725738;81;21056;-40
2022/09/14 09:01:39;;;;;;;5.92;2.95;;;;;;;16.21;67.59;99455.19;1749687;80;21025;-39
2022/09/14 09:04:35;;;;;;;4.67;3.02;;;;;;;16.28;66.58;99441.77;1747110;80;21071;-39
2022/09/14 09:07:10;;;;;;;2.95;2.70;;;;;;;16.34;65.28;99433.16;1747634;80;21037;-38
2022/09/14 09:09:48;;;;;;;5.62;2.80;;;;;;;16.39;67.04;99443.09;1743495;80;20990;-40
2022/09/14 09:12:41;;;;;;;5.72;3.15;;;;;;;16.46;65.11;99445.89;1740401;80;21037;-39
2022/09/14 09:15:32;;;;;;;2.92;2.70;;;;;;;16.49;64.31;99446.26;1745102;80;21916;-49
2022/09/14 09:18:09;;;;;;;6.70;3.17;;;;;;;16.53;64.79;99444.37;1741759;80;21081;-50
2022/09/14 09:20:46;;;;;;;4.80;2.92;;;;;;;16.58;64.89;99455.59;1744907;80;21496;-39
2022/09/14 09:23:19;;;;;;;7.58;3.12;;;;;;;16.63;64.65;99457.14;1747321;80;21068;-39
2022/09/14 09:26:03;;;;;;;3.40;2.47;;;;;;;16.69;64.14;99438.88;1744625;80;21027;-39
2022/09/14 09:28:29;;;;;;;5.60;2.80;;;;;;;16.79;66.35;99435.47;1740352;80;21061;-40
2022/09/14 09:31:03;;;;;;;4.40;2.95;;;;;;;16.97;64.68;99440.89;1694972;80;20969;-39
2022/09/14 09:33:32;;;;;;;3.60;2.80;;;;;;;17.09;64.21;99442.64;1740578;80;21414;-39
2022/09/14 09:36:00;;;;;;;3.45;2.85;;;;;;;17.24;63.88;99443.36;1733837;80;21519;-39
2022/09/14 09:38:29;;;;;;;5.22;3.02;;;;;;;17.34;63.83;99439.89;1739262;80;20997;-48
2022/09/14 09:41:22;;;;;;;5.47;3.60;;;;;;;17.38;62.90;99431.73;1742727;80;21738;-49
2022/09/14 09:44:02;;;;;;;3.97;2.77;;;;;;;17.39;62.22;99441.39;1737675;80;21001;-38
2022/09/14 09:46:31;;;;;;;3.65;2.60;;;;;;;17.38;60.81;99430.42;1738832;80;21048;-39
2022/09/14 09:49:00;;;;;;;3.65;2.83;;;;;;;17.37;60.91;99433.99;1742757;80;21044;-38
2022/09/14 09:51:30;;;;;;;5.50;3.08;;;;;;;17.38;61.45;99429.09;1738953;80;20961;-40
2022/09/14 09:54:15;;;;;;;4.60;2.75;;;;;;;17.44;60.75;99431.48;1744592;80;21044;-40
2022/09/14 09:57:01;;;;;;;3.42;2.87;;;;;;;17.50;60.63;99432.55;1743357;80;21571;-39
2022/09/14 09:59:35;;;;;;;4.95;3.27;;;;;;;17.60;60.68;99433.03;1741347;80;21044;-49
2022/09/14 10:02:27;;;;;;;5.62;3.30;;;;;;;17.60;60.47;99438.32;1744148;80;21583;-39
2022/09/14 10:05:06;;;;;;;5.25;3.02;;;;;;;17.60;60.57;99433.03;1746911;80;20999;-48
2022/09/14 10:07:51;;;;;;;5.17;3.02;;;;;;;17.69;61.96;99412.81;1745493;80;21544;-49
2022/09/14 10:10:21;;;;;;;5.42;2.52;;;;;;;17.85;60.20;99424.93;1741301;80;20943;-38
2022/09/14 10:12:55;;;;;;;7.20;3.05;;;;;;;17.95;59.33;99410.84;1740537;80;21107;-49
2022/09/14 10:15:25;;;;;;;6.72;3.27;;;;;;;18.12;59.94;99412.75;1743191;80;21031;-48
2022/09/14 10:18:02;;;;;;;4.60;3.47;;;;;;;18.33;58.71;99420.58;1741382;80;21378;-41
2022/09/14 10:20:29;;;;;;;3.45;3.15;;;;;;;18.46;56.96;99414.72;1745059;80;21046;-39
2022/09/14 10:22:56;;;;;;;3.77;3.47;;;;;;;18.46;57.80;99410.75;1738671;80;21004;-38
2022/09/14 10:25:24;;;;;;;3.30;2.58;;;;;;;18.35;58.45;99405.48;1719940;81;20965;-39
2022/09/14 10:27:58;;;;;;;3.77;3.30;;;;;;;18.22;58.16;99407.44;1751387;80;21059;-47
2022/09/14 10:30:35;;;;;;;5.15;2.87;;;;;;;18.14;59.42;99417.03;1751235;80;20982;-49
2022/09/14 10:33:07;;;;;;;4.58;3.15;;;;;;;18.37;58.80;99423.08;1756655;79;21031;-41
2022/09/14 10:35:48;;;;;;;3.47;2.90;;;;;;;18.56;58.42;99418.20;1675767;83;21386;-41
2022/09/14 10:38:35;;;;;;;3.30;2.80;;;;;;;18.67;57.92;99412.44;1717379;81;21048;-42
2022/09/14 10:41:47;;;;;;;5.35;3.15;;;;;;;18.66;57.71;99410.66;1730097;81;20964;-41
2022/09/14 10:44:47;;;;;;;6.20;3.33;;;;;;;18.57;58.64;99406.67;1686851;83;21564;-52
2022/09/14 10:47:48;;;;;;;4.17;3.37;;;;;;;18.61;58.96;99406.94;1658923;85;21638;-51
2022/09/14 10:50:29;;;;;;;3.72;3.10;;;;;;;18.84;58.90;99408.97;1637854;86;21554;-54
2022/09/14 10:53:41;;;;;;;4.53;3.62;;;;;;;19.06;58.68;99402.17;1684551;84;21781;-42
2022/09/14 10:56:20;;;;;;;3.90;3.10;;;;;;;19.27;58.06;99396.29;1709703;83;21013;-42
2022/09/14 10:59:10;;;;;;;4.33;3.30;;;;;;;19.34;57.76;99396.37;1662797;85;21160;-43
2022/09/14 11:02:03;;;;;;;4.08;3.25;;;;;;;19.50;56.76;99395.99;1701185;83;22072;-52
2022/09/14 11:05:05;;;;;;;5.05;3.17;;;;;;;19.73;55.88;99388.69;1696029;82;21528;-51
2022/09/14 11:08:05;;;;;;;4.58;3.30;;;;;;;19.87;54.69;99400.75;1660416;85;21172;-53
2022/09/14 11:11:03;;;;;;;3.58;3.05;;;;;;;19.70;55.17;99391.02;1634389;85;21564;-47
2022/09/14 11:13:50;;;;;;;3.60;3.00;;;;;;;19.53;56.71;99381.23;1671771;84;21045;-47
2022/09/14 11:16:38;;;;;;;6.95;3.20;;;;;;;19.44;56.21;99379.06;1668771;84;20994;-48
2022/09/14 11:19:19;;;;;;;7.37;3.72;;;;;;;19.40;57.23;99370.39;1668163;84;21537;-48
2022/09/14 11:22:06;;;;;;;5.15;3.85;;;;;;;19.39;56.97;99365.17;1672625;84;21066;-49
2022/09/14 11:24:41;;;;;;;6.78;4.67;;;;;;;19.31;57.05;99385.46;1732973;80;20985;-48
2022/09/14 11:27:22;;;;;;;6.03;3.72;;;;;;;19.25;56.92;99365.88;1747569;80;21039;-40
2022/09/14 11:30:00;;;;;;;4.45;3.58;;;;;;;19.19;57.07;99371.45;1712107;82;20991;-38
2022/09/14 11:32:44;;;;;;;8.13;3.80;;;;;;;19.14;57.56;99375.69;1678929;83;21468;-41
2022/09/14 11:35:21;;;;;;;5.40;3.70;;;;;;;19.08;57.84;99379.97;1718818;82;20989;-40
2022/09/14 11:38:01;;;;;;;6.55;3.50;;;;;;;19.02;58.28;99401.95;1710571;82;21703;-40
2022/09/14 11:40:48;;;;;;;5.70;3.15;;;;;;;18.96;57.75;99383.23;1718494;82;21001;-40
2022/09/14 11:43:19;;;;;;;6.85;3.90;;;;;;;18.92;56.89;99386.95;1679099;84;21050;-40
2022/09/14 11:45:55;;;;;;;5.25;3.27;;;;;;;18.82;57.84;99378.58;1710504;82;21812;-40
2022/09/14 11:48:42;;;;;;;5.70;3.42;;;;;;;18.80;58.29;99372.97;1701622;82;21111;-40
2022/09/14 11:51:19;;;;;;;6.75;3.30;;;;;;;18.80;57.77;99379.12;1656172;85;21004;-40
2022/09/14 11:53:46;;;;;;;3.33;2.95;;;;;;;18.84;58.35;99371.87;1654262;85;21020;-39
2022/09/14 11:56:31;;;;;;;3.83;3.33;;;;;;;18.90;58.28;99364.94;1656344;85;21472;-40
2022/09/14 11:59:02;;;;;;;3.37;2.92;;;;;;;18.97;58.79;99362.41;1656543;84;21097;-47
2022/09/14 12:01:36;;;;;;;3.33;2.60;;;;;;;19.01;58.58;99363.95;1634063;86;21095;-48
2022/09/14 12:04:16;;;;;;;4.90;2.62;;;;;;;19.02;57.69;99357.74;1655964;85;22052;-41
2022/09/14 12:06:53;;;;;;;3.87;2.80;;;;;;;18.98;57.24;99365.45;1657040;85;21045;-41
2022/09/14 12:09:25;;;;;;;2.90;2.42;;;;;;;18.93;57.75;99357.33;1658093;85;21065;-41
2022/09/14 12:11:57;;;;;;;4.10;2.90;;;;;;;18.85;58.59;99359.89;1659040;85;20992;-40
2022/09/14 12:14:34;;;;;;;8.80;2.77;;;;;;;18.79;58.64;99366.81;1658475;85;21059;-40
2022/09/14 12:17:22;;;;;;;6.25;2.77;;;;;;;18.74;59.44;99371.94;1655858;85;21012;-48
2022/09/14 12:19:54;;;;;;;3.60;2.80;;;;;;;18.67;58.31;99363.44;1656649;85;21017;-49
2022/09/14 12:22:35;;;;;;;6.22;2.40;;;;;;;18.59;58.94;99358.45;1651727;85;21593;-40
2022/09/14 12:25:10;;;;;;;3.17;2.85;;;;;;;18.52;59.66;99363.65;1655315;85;21840;-39
2022/09/14 12:27:39;;;;;;;3.72;2.60;;;;;;;18.48;60.19;99364.72;1666533;82;21061;-39
2022/09/14 12:30:40;;;;;;;4.30;3.12;;;;;;;18.45;60.15;99358.25;1716405;81;21501;-38
2022/09/14 12:33:35;;;;;;;4.25;3.05;;;;;;;18.44;60.37;99359.63;1714750;81;21047;-38
2022/09/14 12:36:25;;;;;;;4.08;3.20;;;;;;;18.43;61.11;99359.23;1721220;82;21796;-40
2022/09/14 12:38:57;;;;;;;3.35;3.05;;;;;;;18.42;61.56;99353.55;1715597;82;21596;-39
2022/09/14 12:41:36;;;;;;;5.40;3.17;;;;;;;18.38;61.62;99354.19;1714386;82;21404;-39
2022/09/14 12:44:06;;;;;;;4.12;2.95;;;;;;;18.36;61.64;99350.73;1710058;82;21526;-39
2022/09/14 12:46:35;;;;;;;3.52;2.52;;;;;;;18.35;62.44;99347.69;1724645;82;20993;-39
2022/09/14 12:49:04;;;;;;;3.58;3.02;;;;;;;18.37;62.65;99344.96;1713493;82;21050;-39
2022/09/14 12:51:43;;;;;;;3.92;3.10;;;;;;;18.37;62.14;99355.55;1668762;85;21049;-40
2022/09/14 12:54:32;;;;;;;5.17;3.67;;;;;;;18.37;61.49;99358.20;1677125;84;21108;-48
2022/09/14 12:57:27;;;;;;;6.03;3.33;;;;;;;18.35;61.02;99351.20;1690026;84;21526;-48
2022/09/14 13:00:11;;;;;;;3.35;3.05;;;;;;;18.35;61.25;99340.61;1642270;86;21384;-48
